createdAt,value
2017-06-23T13:22:14.897Z,28.2
2017-06-23T13:23:16.283Z,28.2
2017-06-23T13:24:38.197Z,28.3
2017-06-23T13:25:39.611Z,28.2
2017-06-23T13:27:01.107Z,28.3
2017-06-23T13:28:04.036Z,28.3
2017-06-23T13:29:25.564Z,28.4
2017-06-23T13:30:26.964Z,28.3
2017-06-23T13:31:48.468Z,28.3
2017-06-23T13:32:49.868Z,28.3
2017-06-23T13:34:11.380Z,28.3
2017-06-23T13:35:12.788Z,28.2
2017-06-23T13:36:34.404Z,28.6
2017-06-23T13:37:35.812Z,29.4
2017-06-23T13:38:58.100Z,29.0
2017-06-23T13:39:59.516Z,28.8
2017-06-23T13:41:21.645Z,28.7
2017-06-23T13:42:22.380Z,28.7
2017-06-23T13:43:43.988Z,28.7
2017-06-23T13:44:46.156Z,28.6
2017-06-23T13:46:07.660Z,28.6
2017-06-23T13:47:09.812Z,28.5
2017-06-23T13:48:31.316Z,28.5
2017-06-23T13:49:32.732Z,28.5
2017-06-23T13:50:54.276Z,28.4
2017-06-23T13:51:56.364Z,28.5
2017-06-23T13:53:18.732Z,28.4
2017-06-23T13:54:20.148Z,28.4
2017-06-23T13:55:42.868Z,28.5
2017-06-23T13:56:44.284Z,28.4
2017-06-23T13:58:05.900Z,28.5
2017-06-23T13:59:08.869Z,28.5
2017-06-23T14:00:30.381Z,28.4
2017-06-23T14:01:31.788Z,28.4
2017-06-23T14:02:53.972Z,28.4
2017-06-23T14:03:55.381Z,28.4
2017-06-23T14:05:16.997Z,28.4
2017-06-23T14:06:19.332Z,28.5
2017-06-23T14:07:41.348Z,28.6
2017-06-23T14:08:43.606Z,28.4
2017-06-23T14:10:05.109Z,28.5
2017-06-23T14:11:07.229Z,28.4
2017-06-23T14:12:28.765Z,28.4
2017-06-23T14:13:31.469Z,28.5
2017-06-23T14:14:52.989Z,28.5
2017-06-23T14:15:54.397Z,28.5
2017-06-23T14:17:15.893Z,28.4
2017-06-23T14:18:18.645Z,28.4
2017-06-23T14:19:40.189Z,28.5
2017-06-23T14:20:41.597Z,28.5
2017-06-23T14:22:03.831Z,28.5
2017-06-23T14:23:05.245Z,28.5
2017-06-23T14:24:26.757Z,28.5
2017-06-23T14:25:28.165Z,28.5
2017-06-23T14:26:49.780Z,28.5
2017-06-23T14:27:51.197Z,28.5
2017-06-23T14:29:12.701Z,28.5
2017-06-23T14:30:14.117Z,28.4
2017-06-23T14:31:38.853Z,28.5
